Terminal Aerodrome Forecast
Issued by NWS

Home | Current Version | Previous Version | Text Only | Print | Product List | Glossary On
Versions: 1 2 3 4 5 6 7 8 9 10 11 12 13 14 15
239
FTUS43 KIND 290334 AAA
TAFLAF
TAF AMD
KLAF 290334Z 2904/2924 07005KT P6SM VCSH OVC020
     FM290700 03006KT P6SM VCSH OVC008
     FM291200 04007KT 4SM SHRA OVC015
     FM291400 06008KT 3SM SHRA OVC008
     FM291600 06009KT 3SM SHRA VCTS OVC008CB
      AMD LTD TO CLD VIS AND WIND TIL 291300=

USA.gov is the U.S. government's official web portal to all federal, state and local government web resources and services.